Time;durP1;ratioP1;P1;durP2;ratioP2;P2;SDS_P1;SDS_P2;PMS_P1;PMS_P2;Temp;Humidity;BMP_temperature;BMP_pressure;BME280_temperature;BME280_humidity;BME280_pressure;Samples;Min_cycle;Max_cycle;Signal;HPM_P1;HPM_P2
2022/10/17 00:01:52;;;;;;;11.80;9.53;;;15.00;99.90;;;;;;5046171;28;20461;-85
2022/10/17 00:04:19;;;;;;;15.30;9.00;;;14.90;99.90;;;;;;5033986;28;20475;-85
2022/10/17 00:06:47;;;;;;;13.83;8.23;;;14.90;99.90;;;;;;5033042;28;20441;-85
2022/10/17 00:09:14;;;;;;;8.30;7.50;;;14.80;99.90;;;;;;5033087;28;20457;-85
2022/10/17 00:11:41;;;;;;;11.10;8.40;;;14.90;99.90;;;;;;5033231;28;20959;-86
2022/10/17 00:14:07;;;;;;;9.43;7.83;;;14.90;99.90;;;;;;5033262;28;20495;-86
2022/10/17 00:16:36;;;;;;;8.30;7.43;;;14.90;99.90;;;;;;5033286;28;20473;-86
2022/10/17 00:19:03;;;;;;;9.03;7.00;;;14.80;99.90;;;;;;5033184;28;20486;-86
2022/10/17 00:21:30;;;;;;;10.73;7.40;;;14.80;99.90;;;;;;5054686;28;20452;-85
2022/10/17 00:23:59;;;;;;;8.43;7.63;;;14.80;99.90;;;;;;5041613;28;20491;-86
2022/10/17 00:26:26;;;;;;;10.20;7.23;;;14.80;99.90;;;;;;5039908;28;20449;-86
2022/10/17 00:28:54;;;;;;;8.17;7.20;;;14.80;99.90;;;;;;5051264;28;20472;-86
2022/10/17 00:31:22;;;;;;;11.50;7.90;;;14.70;99.90;;;;;;5043232;28;20957;-86
2022/10/17 00:33:49;;;;;;;11.40;7.07;;;14.70;99.90;;;;;;5043810;28;20998;-86
2022/10/17 00:36:17;;;;;;;7.30;6.57;;;14.70;99.90;;;;;;5048464;28;20459;-86
2022/10/17 00:38:45;;;;;;;11.30;6.50;;;14.70;99.90;;;;;;5033148;28;20487;-86
2022/10/17 00:41:16;;;;;;;7.50;6.07;;;14.60;99.90;;;;;;5033537;28;20449;-86
2022/10/17 00:43:54;;;;;;;8.37;6.63;;;14.70;99.90;;;;;;5036121;28;20468;-86
2022/10/17 00:46:22;;;;;;;22.27;7.10;;;14.70;99.90;;;;;;5055794;28;20440;-86
2022/10/17 00:48:50;;;;;;;7.40;6.70;;;14.60;99.90;;;;;;5045005;28;20548;-85
2022/10/17 00:51:20;;;;;;;7.73;6.57;;;14.60;99.90;;;;;;5033367;28;21179;-85
2022/10/17 00:53:47;;;;;;;8.03;6.43;;;14.60;99.90;;;;;;5032738;28;20466;-85
2022/10/17 00:56:16;;;;;;;8.00;6.20;;;14.50;99.90;;;;;;5032662;28;20454;-86
2022/10/17 00:58:43;;;;;;;10.33;7.73;;;14.50;99.90;;;;;;5032418;28;20490;-85
2022/10/17 01:01:10;;;;;;;9.90;5.90;;;14.50;99.90;;;;;;5032467;28;20462;-85
2022/10/17 01:03:36;;;;;;;8.50;7.27;;;14.40;99.90;;;;;;5044627;28;20568;-85
2022/10/17 01:06:03;;;;;;;8.70;6.20;;;14.40;99.90;;;;;;5057197;28;20441;-85
2022/10/17 01:08:30;;;;;;;8.00;6.30;;;14.40;99.90;;;;;;5049096;28;20450;-85
2022/10/17 01:11:13;;;;;;;10.03;5.70;;;14.50;99.90;;;;;;5032413;28;20937;-85
2022/10/17 01:13:47;;;;;;;9.57;6.43;;;14.40;99.90;;;;;;5043156;28;20462;-85
2022/10/17 01:16:20;;;;;;;15.67;6.40;;;14.40;99.90;;;;;;5044252;28;20959;-86
2022/10/17 01:19:00;;;;;;;7.80;5.53;;;14.30;99.90;;;;;;5055948;28;20484;-86
2022/10/17 01:21:41;;;;;;;10.30;6.30;;;14.30;99.90;;;;;;5034896;28;20443;-85
2022/10/17 01:24:41;;;;;;;12.57;7.27;;;14.40;99.90;;;;;;5031663;28;20471;-85
2022/10/17 01:27:39;;;;;;;9.50;5.43;;;14.30;99.90;;;;;;5032156;28;20460;-86
2022/10/17 01:30:50;;;;;;;7.17;5.50;;;14.30;99.90;;;;;;5032093;28;20453;-86
2022/10/17 01:33:26;;;;;;;7.17;4.70;;;14.20;99.90;;;;;;5033244;28;20482;-85
2022/10/17 01:35:57;;;;;;;12.03;5.00;;;14.30;99.90;;;;;;5034467;28;20448;-86
2022/10/17 01:38:30;;;;;;;10.70;5.47;;;14.20;99.90;;;;;;5033021;28;20489;-86
2022/10/17 01:41:03;;;;;;;15.83;5.80;;;14.10;99.90;;;;;;5032088;28;20456;-86
2022/10/17 01:43:37;;;;;;;9.20;6.17;;;14.10;99.90;;;;;;5031635;28;20476;-86
2022/10/17 01:46:12;;;;;;;15.13;6.70;;;14.10;99.90;;;;;;5031876;28;20449;-86
2022/10/17 01:48:44;;;;;;;13.60;7.20;;;14.20;99.90;;;;;;5031544;28;20449;-86
2022/10/17 01:51:17;;;;;;;8.57;7.00;;;14.20;99.90;;;;;;5031486;28;20461;-86
2022/10/17 01:53:49;;;;;;;14.20;7.23;;;14.10;99.90;;;;;;5031366;28;20484;-86
2022/10/17 01:56:18;;;;;;;8.97;6.20;;;14.00;99.90;;;;;;5032054;28;20484;-86
2022/10/17 01:58:50;;;;;;;22.40;6.33;;;13.90;99.90;;;;;;5067086;22;20503;-85
2022/10/17 02:01:18;;;;;;;8.20;6.87;;;13.90;99.90;;;;;;5059912;28;20464;-85
2022/10/17 02:03:48;;;;;;;6.97;5.10;;;13.90;99.90;;;;;;5058292;28;20437;-85
2022/10/17 02:06:15;;;;;;;8.20;5.23;;;13.90;99.90;;;;;;5060024;28;20457;-86
2022/10/17 02:08:44;;;;;;;8.77;5.60;;;13.90;99.90;;;;;;5056091;28;20986;-85
2022/10/17 02:11:14;;;;;;;9.30;5.50;;;13.90;99.90;;;;;;5038390;28;20934;-85
2022/10/17 02:13:56;;;;;;;9.23;5.63;;;13.80;99.90;;;;;;5038539;28;20958;-85
2022/10/17 02:16:34;;;;;;;7.63;5.83;;;13.90;99.90;;;;;;5038055;28;20909;-85
2022/10/17 02:19:30;;;;;;;6.20;5.10;;;13.90;99.90;;;;;;5038069;28;20484;-85
2022/10/17 02:22:07;;;;;;;10.40;6.07;;;13.80;99.90;;;;;;5039134;28;20454;-86
2022/10/17 02:24:40;;;;;;;11.63;6.30;;;13.80;99.90;;;;;;5049162;28;20433;-85
2022/10/17 02:27:11;;;;;;;9.93;6.80;;;13.80;99.90;;;;;;5047880;28;20437;-85
2022/10/17 02:29:46;;;;;;;11.13;7.30;;;13.80;99.90;;;;;;5043992;28;20468;-85
2022/10/17 02:32:17;;;;;;;10.40;8.13;;;13.80;99.90;;;;;;5047147;28;20437;-85
2022/10/17 02:34:48;;;;;;;18.80;7.60;;;13.80;99.90;;;;;;5047192;28;20524;-85
2022/10/17 02:37:20;;;;;;;10.97;7.63;;;13.80;99.90;;;;;;5050521;28;20441;-85
2022/10/17 02:39:48;;;;;;;19.73;7.50;;;13.80;99.90;;;;;;5049553;28;20556;-85
2022/10/17 02:42:15;;;;;;;15.43;6.63;;;13.80;99.90;;;;;;5048676;28;20464;-85
2022/10/17 02:44:44;;;;;;;11.00;7.63;;;13.80;99.90;;;;;;5049600;28;20446;-85
2022/10/17 02:47:18;;;;;;;13.43;6.43;;;13.70;99.90;;;;;;5044423;28;20671;-85
2022/10/17 02:49:50;;;;;;;15.23;8.17;;;13.60;99.90;;;;;;5050998;28;20468;-85
2022/10/17 02:52:23;;;;;;;11.70;7.90;;;13.80;99.90;;;;;;5057622;28;20448;-85
2022/10/17 02:54:54;;;;;;;9.50;6.33;;;13.80;99.90;;;;;;5058817;28;20452;-86
2022/10/17 02:57:25;;;;;;;10.50;6.70;;;13.80;99.90;;;;;;5050131;28;20468;-85
2022/10/17 02:59:52;;;;;;;11.70;7.60;;;13.70;99.90;;;;;;5045532;28;20500;-85
2022/10/17 03:02:19;;;;;;;11.47;6.97;;;13.70;99.90;;;;;;5044186;28;20532;-85
2022/10/17 03:04:47;;;;;;;13.20;7.60;;;13.60;99.90;;;;;;5043045;28;20448;-85
2022/10/17 03:07:13;;;;;;;13.47;7.70;;;13.60;99.90;;;;;;5042460;28;20449;-85
2022/10/17 03:09:40;;;;;;;12.43;7.43;;;13.60;99.90;;;;;;5043836;28;20484;-85
2022/10/17 03:15:28;;;;;;;12.80;7.77;;;13.60;99.90;;;;;;5033073;28;20495;-85
2022/10/17 03:17:55;;;;;;;12.27;7.93;;;13.60;99.90;;;;;;5049823;28;20791;-85
2022/10/17 03:20:23;;;;;;;15.33;7.70;;;13.70;99.90;;;;;;5060464;28;20473;-85
2022/10/17 03:22:50;;;;;;;10.87;7.80;;;13.60;99.90;;;;;;5059643;28;20513;-86
2022/10/17 03:25:17;;;;;;;9.20;6.67;;;13.60;99.90;;;;;;5050346;28;20445;-86
2022/10/17 03:27:43;;;;;;;10.07;6.87;;;13.60;99.90;;;;;;5040733;28;20437;-85
2022/10/17 03:30:10;;;;;;;15.97;7.20;;;13.60;99.90;;;;;;5039643;28;20477;-85
2022/10/17 03:32:37;;;;;;;13.47;7.47;;;13.50;99.90;;;;;;5041965;28;20438;-85
2022/10/17 03:35:05;;;;;;;9.80;7.70;;;13.50;99.90;;;;;;5046669;28;20922;-85
2022/10/17 03:37:33;;;;;;;11.27;7.47;;;13.50;99.90;;;;;;5043926;28;20457;-85
2022/10/17 03:40:00;;;;;;;11.60;7.80;;;13.60;99.90;;;;;;5040429;28;21020;-85
2022/10/17 03:42:26;;;;;;;10.73;6.93;;;13.60;99.90;;;;;;5040881;28;20449;-85
2022/10/17 03:44:53;;;;;;;10.17;6.53;;;13.70;99.90;;;;;;5041791;28;20452;-85
2022/10/17 03:47:20;;;;;;;9.30;7.10;;;13.70;99.90;;;;;;5040958;28;20445;-85
2022/10/17 03:49:46;;;;;;;11.97;7.37;;;13.70;99.90;;;;;;5042043;28;20466;-85
2022/10/17 03:52:13;;;;;;;11.90;7.00;;;13.70;99.90;;;;;;5041067;28;20449;-85
2022/10/17 03:54:42;;;;;;;11.30;6.97;;;13.70;99.90;;;;;;5052444;28;20452;-85
2022/10/17 03:57:08;;;;;;;11.40;7.07;;;13.70;99.90;;;;;;5047703;28;20451;-85
2022/10/17 03:59:35;;;;;;;15.30;7.87;;;13.70;99.90;;;;;;5042233;28;21033;-86
2022/10/17 04:02:02;;;;;;;17.67;7.67;;;13.60;99.90;;;;;;5041730;28;20456;-85
2022/10/17 04:04:28;;;;;;;9.60;6.70;;;13.60;99.90;;;;;;5041625;28;20449;-85
2022/10/17 04:06:55;;;;;;;14.47;8.10;;;13.60;99.90;;;;;;5052326;28;20438;-86
2022/10/17 04:09:22;;;;;;;8.50;7.60;;;13.60;99.90;;;;;;5046913;28;20461;-85
2022/10/17 04:11:50;;;;;;;13.43;6.77;;;13.70;99.90;;;;;;5048701;28;20446;-84
2022/10/17 04:14:16;;;;;;;12.13;7.83;;;13.80;99.90;;;;;;5050230;28;20424;-86
2022/10/17 04:16:43;;;;;;;10.60;8.20;;;13.80;99.90;;;;;;5058495;28;20456;-86
2022/10/17 04:19:12;;;;;;;8.47;7.60;;;13.90;99.90;;;;;;5053319;28;20493;-86
2022/10/17 04:21:39;;;;;;;9.70;7.60;;;13.80;99.90;;;;;;5042849;28;20449;-85
2022/10/17 04:24:06;;;;;;;8.83;7.30;;;13.80;99.90;;;;;;5040867;28;20450;-86
2022/10/17 04:26:33;;;;;;;8.50;7.70;;;13.80;99.90;;;;;;5041418;28;20452;-85
2022/10/17 04:29:01;;;;;;;14.63;7.80;;;13.80;99.90;;;;;;5043598;28;20463;-85
2022/10/17 04:31:28;;;;;;;13.47;8.97;;;13.80;99.90;;;;;;5042373;28;20442;-85
2022/10/17 04:33:54;;;;;;;11.23;7.73;;;13.80;99.90;;;;;;5051181;28;20449;-86
2022/10/17 04:36:22;;;;;;;8.47;6.97;;;13.80;99.90;;;;;;5055315;28;20432;-86
2022/10/17 04:38:49;;;;;;;10.70;6.10;;;13.80;99.90;;;;;;5038820;28;20543;-86
2022/10/17 04:41:17;;;;;;;8.67;6.67;;;13.70;99.90;;;;;;5040108;28;20454;-84
2022/10/17 04:43:44;;;;;;;11.23;7.73;;;13.70;99.90;;;;;;5041380;28;20457;-85
2022/10/17 04:46:14;;;;;;;14.23;8.70;;;13.70;99.90;;;;;;5039954;28;20445;-85
2022/10/17 04:48:41;;;;;;;15.73;8.33;;;13.70;99.90;;;;;;5038617;28;20861;-85
2022/10/17 04:51:11;;;;;;;12.80;8.30;;;13.70;99.90;;;;;;5039596;28;20468;-85
2022/10/17 04:53:39;;;;;;;9.07;7.77;;;13.70;99.90;;;;;;5041343;28;20791;-85
2022/10/17 04:56:11;;;;;;;18.27;9.20;;;13.60;99.90;;;;;;5040728;28;20465;-85
2022/10/17 04:58:38;;;;;;;11.03;9.10;;;13.60;99.90;;;;;;5039987;28;20492;-85
2022/10/17 05:01:06;;;;;;;13.37;8.23;;;13.70;99.90;;;;;;5039305;28;20449;-85
2022/10/17 05:03:35;;;;;;;11.07;8.33;;;13.70;99.90;;;;;;5040054;28;20467;-86
2022/10/17 05:06:05;;;;;;;13.73;9.10;;;13.60;99.90;;;;;;5040554;28;20548;-85
2022/10/17 05:08:32;;;;;;;11.80;7.73;;;13.60;99.90;;;;;;5050608;28;20462;-85
2022/10/17 05:10:59;;;;;;;12.63;9.13;;;13.60;99.90;;;;;;5051709;28;20453;-85
2022/10/17 05:13:26;;;;;;;14.20;9.63;;;13.60;99.90;;;;;;5045058;28;20453;-85
2022/10/17 05:15:52;;;;;;;11.03;8.33;;;13.60;99.90;;;;;;5044879;28;20441;-85
2022/10/17 05:18:19;;;;;;;15.17;9.60;;;13.60;99.90;;;;;;5045204;28;21066;-87
2022/10/17 05:20:47;;;;;;;16.30;9.80;;;13.60;99.90;;;;;;5041188;28;20636;-84
2022/10/17 05:23:14;;;;;;;13.33;7.87;;;13.60;99.90;;;;;;5040764;28;20468;-85
2022/10/17 05:25:40;;;;;;;17.93;9.20;;;13.60;99.90;;;;;;5041062;28;20446;-84
2022/10/17 05:28:07;;;;;;;10.87;8.83;;;13.60;99.90;;;;;;5043186;28;20449;-85
2022/10/17 05:30:35;;;;;;;16.60;8.97;;;13.60;99.90;;;;;;5042381;28;20446;-84
2022/10/17 05:33:02;;;;;;;11.97;8.20;;;13.60;99.90;;;;;;5047741;28;20429;-84
2022/10/17 05:35:29;;;;;;;14.50;7.77;;;13.60;99.90;;;;;;5056353;28;20464;-84
2022/10/17 05:37:59;;;;;;;11.50;7.53;;;13.60;99.90;;;;;;5055915;28;20434;-85
2022/10/17 05:40:26;;;;;;;13.37;7.23;;;13.60;99.90;;;;;;5045925;28;20497;-86
2022/10/17 05:42:53;;;;;;;12.70;8.53;;;13.60;99.90;;;;;;5042073;28;20474;-86
2022/10/17 05:45:20;;;;;;;29.67;7.87;;;13.60;99.90;;;;;;5040893;28;20460;-85
2022/10/17 05:47:46;;;;;;;12.90;8.23;;;13.60;99.90;;;;;;5040127;28;20457;-85
2022/10/17 05:50:13;;;;;;;10.03;8.00;;;13.50;99.90;;;;;;5041386;28;20469;-86
2022/10/17 05:52:40;;;;;;;19.17;8.80;;;13.50;99.90;;;;;;5041499;28;20456;-85
2022/10/17 05:55:09;;;;;;;12.17;9.10;;;13.60;99.90;;;;;;5039444;28;20541;-85
2022/10/17 05:57:36;;;;;;;14.80;9.20;;;13.60;99.90;;;;;;5039932;28;20556;-86
2022/10/17 06:00:04;;;;;;;17.20;9.67;;;13.60;99.90;;;;;;5040037;28;20496;-85
2022/10/17 06:02:31;;;;;;;17.30;9.97;;;13.60;99.90;;;;;;5042928;28;20555;-86
2022/10/17 06:04:58;;;;;;;22.00;8.47;;;13.70;99.90;;;;;;5040944;28;20446;-86
2022/10/17 06:07:25;;;;;;;14.90;9.37;;;13.70;99.90;;;;;;5041037;28;20453;-85
2022/10/17 06:09:51;;;;;;;13.73;9.50;;;13.60;99.90;;;;;;5040715;28;20472;-85
2022/10/17 06:12:20;;;;;;;15.23;9.00;;;13.70;99.90;;;;;;5038277;28;20434;-85
2022/10/17 06:14:46;;;;;;;14.50;8.87;;;13.70;99.90;;;;;;5039843;28;20457;-85
2022/10/17 06:17:13;;;;;;;10.50;8.37;;;13.70;99.90;;;;;;5039837;28;20464;-85
2022/10/17 06:19:40;;;;;;;13.80;9.30;;;13.70;99.90;;;;;;5056233;28;20485;-86
2022/10/17 06:22:08;;;;;;;14.00;9.90;;;13.70;99.90;;;;;;5045264;28;20445;-86
2022/10/17 06:24:34;;;;;;;14.10;9.20;;;13.80;99.90;;;;;;5044357;28;20468;-86
2022/10/17 06:27:01;;;;;;;10.00;8.53;;;13.70;99.90;;;;;;5040723;28;20449;-85
2022/10/17 06:29:29;;;;;;;11.97;9.50;;;13.70;99.90;;;;;;5036978;28;20458;-86
2022/10/17 06:31:56;;;;;;;11.53;7.97;;;13.70;99.90;;;;;;5041978;28;20449;-85
2022/10/17 06:34:22;;;;;;;13.20;8.30;;;13.70;99.90;;;;;;5049131;28;20429;-87
2022/10/17 06:36:49;;;;;;;14.77;8.27;;;13.80;99.90;;;;;;5057147;28;20453;-87
2022/10/17 06:39:16;;;;;;;11.37;7.43;;;13.80;99.90;;;;;;5056777;28;20485;-87
2022/10/17 06:41:43;;;;;;;10.93;7.63;;;13.90;99.90;;;;;;5048156;28;20452;-86
2022/10/17 06:44:10;;;;;;;9.87;7.70;;;13.90;99.90;;;;;;5037497;28;20441;-85
2022/10/17 06:46:39;;;;;;;14.70;7.97;;;13.90;99.90;;;;;;5034732;28;20475;-85
2022/10/17 06:49:07;;;;;;;13.63;7.87;;;13.90;99.90;;;;;;5022482;28;20460;-85
2022/10/17 06:51:36;;;;;;;13.73;8.13;;;13.90;99.90;;;;;;5025580;28;20456;-85
2022/10/17 06:54:04;;;;;;;12.37;7.60;;;13.90;99.90;;;;;;5023816;28;20442;-86
2022/10/17 06:56:30;;;;;;;10.43;7.20;;;14.00;99.90;;;;;;5022277;28;20505;-85
2022/10/17 06:58:57;;;;;;;15.00;7.73;;;14.00;99.90;;;;;;5023077;28;20478;-85
2022/10/17 07:01:25;;;;;;;13.70;7.77;;;14.10;99.90;;;;;;5021476;28;20437;-86
2022/10/17 07:03:53;;;;;;;10.83;6.03;;;14.20;99.90;;;;;;5026618;28;20444;-85
2022/10/17 07:06:23;;;;;;;13.00;7.47;;;14.20;99.90;;;;;;5024949;28;20442;-86
2022/10/17 07:08:50;;;;;;;12.40;7.60;;;14.20;99.90;;;;;;5021812;28;20469;-85
2022/10/17 07:11:26;;;;;;;10.17;7.43;;;14.20;99.90;;;;;;5027586;28;20477;-84
2022/10/17 07:13:53;;;;;;;16.53;8.03;;;14.20;99.90;;;;;;5024961;28;20938;-85
2022/10/17 07:16:20;;;;;;;12.10;7.60;;;14.30;99.90;;;;;;5028634;28;20445;-85
2022/10/17 07:18:49;;;;;;;11.57;6.70;;;14.40;99.90;;;;;;5025410;28;20519;-85
2022/10/17 07:21:18;;;;;;;14.27;7.00;;;14.50;99.90;;;;;;5032091;28;20548;-82
2022/10/17 07:23:47;;;;;;;8.80;6.60;;;14.60;99.90;;;;;;5039171;28;20461;-83
2022/10/17 07:26:16;;;;;;;8.83;6.40;;;14.70;99.90;;;;;;5036555;28;20993;-84
2022/10/17 07:28:45;;;;;;;10.27;7.60;;;14.80;99.90;;;;;;5033111;28;20455;-84
2022/10/17 07:31:15;;;;;;;10.27;7.27;;;14.90;99.90;;;;;;5027537;28;20445;-84
2022/10/17 07:33:42;;;;;;;7.43;6.73;;;15.00;99.90;;;;;;5039249;28;20448;-84
2022/10/17 07:36:09;;;;;;;9.93;6.87;;;15.10;99.90;;;;;;5040592;28;20431;-83
2022/10/17 07:38:38;;;;;;;10.13;7.30;;;15.20;99.90;;;;;;5039575;28;20463;-82
2022/10/17 07:41:07;;;;;;;10.43;6.50;;;15.30;99.90;;;;;;5039061;28;20475;-83
2022/10/17 07:43:35;;;;;;;8.23;6.93;;;15.50;99.90;;;;;;5038953;28;20443;-83
2022/10/17 07:46:04;;;;;;;12.43;6.13;;;15.60;99.90;;;;;;5037840;28;20442;-84
2022/10/17 07:48:33;;;;;;;9.90;6.53;;;15.80;99.90;;;;;;5029914;28;20465;-84
2022/10/17 07:51:02;;;;;;;6.97;5.27;;;15.90;99.90;;;;;;5029963;28;20465;-85
2022/10/17 07:53:34;;;;;;;6.73;5.80;;;16.00;99.90;;;;;;5038197;28;20444;-86
2022/10/17 07:56:06;;;;;;;12.63;6.30;;;16.10;99.90;;;;;;5039544;28;20442;-84
2022/10/17 07:58:34;;;;;;;5.87;4.63;;;16.30;99.90;;;;;;5042564;28;20476;-82
2022/10/17 08:01:02;;;;;;;5.10;4.57;;;16.60;99.90;;;;;;5046418;28;20605;-81
2022/10/17 08:03:29;;;;;;;4.87;4.20;;;17.30;99.90;;;;;;5041215;28;20453;-82
2022/10/17 08:05:58;;;;;;;7.03;4.13;;;18.50;99.90;;;;;;5033926;28;20456;-83
2022/10/17 08:08:25;;;;;;;9.40;4.80;;;19.50;99.90;;;;;;4967702;28;20518;-84
2022/10/17 08:10:52;;;;;;;7.73;4.67;;;20.10;99.90;;;;;;4918073;28;20485;-84
2022/10/17 08:13:21;;;;;;;5.33;3.50;;;20.80;99.90;;;;;;5016351;28;20797;-83
2022/10/17 08:15:48;;;;;;;5.67;4.40;;;21.40;99.90;;;;;;5011416;28;20479;-82
2022/10/17 08:18:16;;;;;;;7.23;3.70;;;20.90;99.90;;;;;;5025684;28;20449;-82
2022/10/17 08:20:43;;;;;;;5.40;3.40;;;20.50;99.90;;;;;;5007120;28;20448;-81
2022/10/17 08:23:10;;;;;;;7.37;4.10;;;20.20;99.90;;;;;;4998044;28;20444;-82
2022/10/17 08:25:38;;;;;;;6.90;4.50;;;19.90;99.90;;;;;;4995085;28;20439;-83
2022/10/17 08:28:05;;;;;;;6.20;4.67;;;19.60;99.90;;;;;;5001506;28;20447;-83
2022/10/17 08:30:33;;;;;;;3.90;3.50;;;19.40;99.90;;;;;;5003659;28;20988;-82
2022/10/17 08:33:00;;;;;;;4.23;3.60;;;19.20;99.90;;;;;;4998935;28;20464;-83
2022/10/17 08:35:27;;;;;;;7.17;4.30;;;19.10;99.90;;;;;;5005307;28;20442;-82
2022/10/17 08:37:54;;;;;;;6.57;4.17;;;19.10;99.90;;;;;;5006854;28;20442;-81
2022/10/17 08:40:24;;;;;;;5.90;4.23;;;19.10;99.90;;;;;;4995842;28;20467;-84
2022/10/17 08:43:21;;;;;;;9.67;4.13;;;19.10;99.90;;;;;;5008751;28;20451;-81
2022/10/17 08:45:54;;;;;;;7.87;4.33;;;19.00;99.90;;;;;;5001339;28;20512;-82
2022/10/17 08:48:24;;;;;;;10.37;3.83;;;18.70;99.90;;;;;;4998787;28;20443;-81
2022/10/17 08:50:53;;;;;;;11.00;5.67;;;18.80;99.90;;;;;;4998495;28;21086;-82
2022/10/17 08:53:24;;;;;;;8.77;3.83;;;19.00;99.90;;;;;;4997099;28;20778;-82
2022/10/17 08:55:53;;;;;;;6.20;4.07;;;19.10;99.90;;;;;;4996068;28;20450;-84
2022/10/17 08:58:26;;;;;;;7.10;4.60;;;19.40;99.90;;;;;;5007506;28;20450;-86
2022/10/17 09:01:03;;;;;;;10.23;4.80;;;19.60;99.90;;;;;;5009572;28;20438;-82
2022/10/17 09:03:58;;;;;;;11.57;6.50;;;19.70;99.90;;;;;;5012140;28;20446;-82
2022/10/17 09:06:28;;;;;;;11.27;5.57;;;19.80;99.90;;;;;;5014159;28;20443;-87
2022/10/17 09:09:13;;;;;;;9.30;5.40;;;19.80;99.90;;;;;;5032889;23;20493;-91
2022/10/17 09:33:19;;;;;;;8.33;4.70;;;21.90;99.90;;;;;;4890463;29;20436;-91
2022/10/17 09:35:46;;;;;;;5.97;4.50;;;21.90;99.90;;;;;;4933709;28;20876;-88
2022/10/17 09:38:20;;;;;;;9.70;4.33;;;22.00;99.90;;;;;;4994631;28;20463;-88
2022/10/17 09:40:52;;;;;;;5.67;3.73;;;22.10;99.90;;;;;;4994959;28;20454;-88
2022/10/17 09:43:20;;;;;;;5.90;3.60;;;22.10;99.90;;;;;;4993933;28;20443;-88
2022/10/17 09:46:01;;;;;;;5.40;3.80;;;22.30;99.90;;;;;;4997568;28;20445;-89
2022/10/17 09:48:33;;;;;;;4.93;3.37;;;22.20;99.90;;;;;;4995197;28;21030;-88
2022/10/17 09:51:00;;;;;;;7.83;5.30;;;22.30;99.90;;;;;;5015716;28;20486;-88
2022/10/17 09:53:34;;;;;;;4.60;3.93;;;22.50;99.90;;;;;;5014113;28;20447;-88
2022/10/17 09:56:06;;;;;;;9.40;4.27;;;22.80;99.90;;;;;;4996053;28;20449;-87
2022/10/17 09:58:41;;;;;;;5.83;4.07;;;23.20;99.90;;;;;;4993263;28;20478;-87
2022/10/17 10:01:20;;;;;;;6.27;3.80;;;24.30;99.90;;;;;;4993521;28;20486;-87
2022/10/17 10:03:47;;;;;;;13.03;3.60;;;25.80;97.90;;;;;;5002797;28;20450;-86
2022/10/17 10:06:16;;;;;;;6.87;3.77;;;27.50;94.80;;;;;;5000084;28;20454;-87
2022/10/17 10:08:53;;;;;;;6.63;4.37;;;28.50;91.20;;;;;;5005217;28;20462;-87
2022/10/17 10:11:24;;;;;;;8.80;4.47;;;28.90;88.50;;;;;;5008478;28;20500;-86
2022/10/17 10:13:52;;;;;;;6.20;3.70;;;29.00;86.90;;;;;;5029997;28;20442;-87
2022/10/17 10:16:23;;;;;;;7.80;4.30;;;29.50;85.20;;;;;;5010434;28;20443;-87
2022/10/17 10:18:51;;;;;;;6.20;3.60;;;29.00;83.00;;;;;;5004244;28;21226;-87
2022/10/17 10:21:20;;;;;;;7.40;3.73;;;29.60;84.40;;;;;;5008157;28;20438;-87
2022/10/17 10:24:05;;;;;;;5.47;3.70;;;30.60;80.60;;;;;;5006499;28;20444;-85
2022/10/17 10:26:37;;;;;;;6.60;3.80;;;30.90;76.20;;;;;;5015009;28;20452;-87
2022/10/17 10:29:07;;;;;;;9.67;5.00;;;31.10;77.10;;;;;;5031355;28;20448;-86
2022/10/17 10:31:37;;;;;;;4.77;3.67;;;31.90;74.00;;;;;;5026067;28;20470;-84
2022/10/17 10:34:16;;;;;;;5.97;3.73;;;32.00;71.80;;;;;;5027549;28;20441;-84
2022/10/17 10:36:47;;;;;;;6.23;3.47;;;31.70;71.60;;;;;;5009910;28;20457;-84
2022/10/17 10:39:41;;;;;;;6.00;3.50;;;31.80;70.90;;;;;;5011424;28;20468;-84
2022/10/17 10:42:18;;;;;;;12.37;3.97;;;32.60;71.00;;;;;;5024548;28;20438;-88
2022/10/17 10:44:45;;;;;;;7.13;4.10;;;33.50;66.60;;;;;;5013605;28;20452;-87
2022/10/17 10:47:21;;;;;;;5.93;4.07;;;33.50;65.60;;;;;;5010198;28;20556;-87
2022/10/17 10:49:51;;;;;;;13.13;4.00;;;32.60;67.50;;;;;;5011761;28;20442;-87
2022/10/17 10:52:27;;;;;;;5.40;3.90;;;33.20;66.90;;;;;;5010953;28;20796;-87
2022/10/17 10:55:03;;;;;;;5.17;3.93;;;34.10;65.00;;;;;;5012708;28;20456;-87
2022/10/17 10:57:35;;;;;;;6.93;4.10;;;34.10;62.90;;;;;;5002158;28;20436;-87
2022/10/17 11:00:11;;;;;;;7.77;4.20;;;34.70;61.30;;;;;;5014951;28;20452;-87
2022/10/17 11:02:44;;;;;;;5.93;3.87;;;35.20;60.60;;;;;;5009130;28;20933;-87
2022/10/17 11:05:18;;;;;;;17.70;4.97;;;34.60;60.30;;;;;;5001146;28;20771;-87
2022/10/17 11:07:52;;;;;;;5.10;4.00;;;34.90;59.30;;;;;;5008148;28;20476;-87
2022/10/17 11:10:35;;;;;;;7.30;3.40;;;35.00;59.50;;;;;;5006973;28;20458;-87
2022/10/17 11:13:09;;;;;;;7.27;3.10;;;35.60;57.80;;;;;;5006961;28;20439;-87
2022/10/17 11:15:44;;;;;;;5.80;3.80;;;35.90;58.10;;;;;;5009707;28;20445;-88
2022/10/17 11:18:20;;;;;;;8.00;4.60;;;35.40;56.90;;;;;;5024003;28;20513;-87
2022/10/17 11:20:52;;;;;;;9.53;4.20;;;35.40;57.80;;;;;;5023867;28;20486;-85
2022/10/17 11:23:33;;;;;;;6.07;3.57;;;36.30;56.90;;;;;;5007861;28;20447;-87
2022/10/17 11:26:06;;;;;;;8.70;3.70;;;36.60;55.00;;;;;;5009468;28;20448;-87
2022/10/17 11:28:33;;;;;;;6.37;2.90;;;36.90;54.60;;;;;;5009229;28;20464;-86
2022/10/17 11:31:06;;;;;;;4.33;3.00;;;36.80;53.40;;;;;;5018330;28;20433;-87
2022/10/17 11:33:41;;;;;;;6.53;3.40;;;36.20;53.80;;;;;;5027617;28;20433;-85
2022/10/17 11:36:10;;;;;;;5.30;3.30;;;36.40;54.00;;;;;;5001484;28;20435;-85
2022/10/17 11:38:42;;;;;;;4.77;3.43;;;37.00;53.50;;;;;;4998192;28;20484;-85
2022/10/17 11:41:18;;;;;;;6.90;4.20;;;36.70;52.40;;;;;;5005553;28;20568;-85
2022/10/17 11:43:51;;;;;;;5.73;4.00;;;36.90;53.00;;;;;;5001453;28;20511;-86
2022/10/17 11:46:22;;;;;;;5.03;3.70;;;37.90;51.20;;;;;;5006378;28;20529;-84
2022/10/17 11:49:00;;;;;;;4.13;3.47;;;38.20;51.10;;;;;;5015589;28;20462;-83
2022/10/17 11:51:29;;;;;;;5.97;3.10;;;38.90;48.70;;;;;;5023228;28;20452;-84
2022/10/17 11:54:01;;;;;;;5.00;4.00;;;39.10;48.20;;;;;;5002812;28;20449;-84
2022/10/17 11:56:39;;;;;;;6.50;3.40;;;38.20;48.40;;;;;;5001108;28;20450;-86
2022/10/17 11:59:38;;;;;;;5.27;3.67;;;36.80;49.20;;;;;;5009595;28;20474;-87
2022/10/17 12:02:09;;;;;;;6.07;2.93;;;36.90;49.00;;;;;;5014595;28;20493;-86
2022/10/17 12:04:56;;;;;;;3.97;1.90;;;36.90;45.50;;;;;;5022016;28;20463;-83
2022/10/17 12:07:29;;;;;;;4.80;2.20;;;35.60;44.70;;;;;;5022356;28;20430;-86
2022/10/17 12:10:04;;;;;;;6.73;2.37;;;35.30;45.30;;;;;;5015130;28;20461;-86
2022/10/17 12:12:35;;;;;;;3.57;2.27;;;34.20;45.80;;;;;;5014639;28;20453;-86
2022/10/17 12:15:28;;;;;;;3.80;2.30;;;32.90;48.00;;;;;;5013757;28;20552;-85
2022/10/17 12:17:57;;;;;;;5.63;2.37;;;32.40;49.70;;;;;;5004627;28;20482;-85
2022/10/17 12:20:32;;;;;;;3.93;2.53;;;31.80;49.90;;;;;;5014984;28;20973;-85
2022/10/17 12:23:17;;;;;;;5.43;2.43;;;30.90;51.40;;;;;;5014779;28;20451;-85
2022/10/17 12:25:49;;;;;;;5.83;2.60;;;30.60;51.80;;;;;;5013009;28;20466;-85
2022/10/17 12:28:24;;;;;;;5.27;2.50;;;30.40;52.20;;;;;;5014130;28;20469;-85
2022/10/17 12:30:54;;;;;;;3.13;2.50;;;30.20;52.50;;;;;;5014707;28;20452;-85
2022/10/17 12:33:25;;;;;;;4.20;2.10;;;29.70;53.80;;;;;;5019633;28;20452;-85
2022/10/17 12:36:48;;;;;;;2.57;1.83;;;29.10;54.60;;;;;;5027728;28;20455;-85
2022/10/17 12:39:52;;;;;;;7.40;2.47;;;28.40;54.90;;;;;;5015170;28;20898;-85
2022/10/17 12:42:49;;;;;;;5.27;2.27;;;27.70;57.10;;;;;;5022444;28;20494;-85
2022/10/17 12:45:53;;;;;;;3.60;1.90;;;27.90;57.90;;;;;;4991912;28;20449;-84
2022/10/17 12:48:53;;;;;;;7.50;3.00;;;27.80;58.20;;;;;;5013794;28;20461;-85
2022/10/17 12:51:21;;;;;;;4.40;2.00;;;27.60;58.00;;;;;;5011746;28;20457;-85
2022/10/17 12:53:56;;;;;;;2.13;1.93;;;27.70;58.10;;;;;;5014297;28;20469;-84
2022/10/17 12:56:38;;;;;;;3.20;2.13;;;28.40;57.80;;;;;;5014161;28;20453;-85
2022/10/17 12:59:12;;;;;;;4.67;2.47;;;29.00;55.90;;;;;;5013670;28;20466;-85
2022/10/17 13:01:43;;;;;;;4.47;2.20;;;28.70;55.60;;;;;;5013186;28;20490;-85
2022/10/17 13:04:11;;;;;;;4.97;2.07;;;28.70;56.80;;;;;;5013416;28;20474;-85
2022/10/17 13:06:44;;;;;;;6.10;3.60;;;29.40;56.60;;;;;;5013925;28;20449;-85
2022/10/17 13:09:21;;;;;;;4.27;2.63;;;30.20;55.20;;;;;;5027494;28;20461;-85
2022/10/17 13:11:50;;;;;;;3.23;2.20;;;31.40;53.50;;;;;;5032442;28;20438;-85
2022/10/17 13:14:20;;;;;;;2.70;2.40;;;32.70;51.30;;;;;;5025647;28;20503;-85
2022/10/17 13:16:52;;;;;;;3.30;2.90;;;33.50;50.20;;;;;;5027130;28;20456;-85
2022/10/17 13:19:24;;;;;;;7.87;5.63;;;33.30;49.10;;;;;;5015156;28;20470;-85
2022/10/17 13:21:54;;;;;;;9.20;4.67;;;33.00;49.20;;;;;;5015028;28;20485;-85
2022/10/17 13:24:23;;;;;;;4.20;3.20;;;32.90;50.00;;;;;;5013825;28;20504;-85
2022/10/17 13:26:51;;;;;;;6.63;3.80;;;32.10;55.40;;;;;;5013466;28;20460;-85
2022/10/17 13:29:20;;;;;;;4.60;2.37;;;31.40;57.90;;;;;;5013015;28;20741;-85